createdAt,value
2023-07-11T00:02:07.460Z,22.89
2023-07-11T00:04:51.886Z,23.04
2023-07-11T00:07:35.532Z,22.87
2023-07-11T00:10:20.862Z,22.70
2023-07-11T00:13:04.557Z,22.77
2023-07-11T00:16:09.419Z,22.65
2023-07-11T00:18:54.474Z,22.60
2023-07-11T00:21:38.332Z,22.71
2023-07-11T00:24:21.905Z,22.50
2023-07-11T00:27:05.672Z,22.52
2023-07-11T00:29:49.503Z,22.62
2023-07-11T00:32:35.032Z,22.52
2023-07-11T00:35:18.607Z,22.48
2023-07-11T00:38:02.110Z,22.39
2023-07-11T00:40:50.508Z,22.45
2023-07-11T00:43:35.786Z,22.21
2023-07-11T00:46:20.782Z,22.40
2023-07-11T00:49:04.779Z,22.32
2023-07-11T00:51:58.280Z,22.18
2023-07-11T00:54:48.048Z,22.15
2023-07-11T00:57:38.643Z,22.00
2023-07-11T01:00:22.369Z,22.06
2023-07-11T01:03:08.040Z,21.88
2023-07-11T01:05:57.720Z,21.96
2023-07-11T01:08:42.587Z,21.84
2023-07-11T01:11:30.486Z,21.86
2023-07-11T01:14:14.160Z,21.79
2023-07-11T01:16:58.259Z,21.84
2023-07-11T01:19:41.928Z,21.77
2023-07-11T01:22:28.427Z,21.89
2023-07-11T01:25:15.700Z,21.82
2023-07-11T01:27:59.279Z,21.78
2023-07-11T01:30:43.914Z,21.56
2023-07-11T01:33:28.103Z,21.43
2023-07-11T01:36:11.841Z,21.52
2023-07-11T01:38:55.449Z,21.54
2023-07-11T01:41:39.024Z,21.37
2023-07-11T01:44:24.899Z,21.41
2023-07-11T01:47:09.427Z,21.46
2023-07-11T01:49:55.493Z,21.39
2023-07-11T01:52:39.126Z,21.22
2023-07-11T01:55:22.938Z,21.12
2023-07-11T01:58:06.719Z,21.03
2023-07-11T02:00:50.374Z,21.04
2023-07-11T02:03:34.042Z,21.05
2023-07-11T02:06:17.616Z,21.23
2023-07-11T02:09:03.631Z,21.28
2023-07-11T02:11:48.893Z,21.25
2023-07-11T02:14:32.446Z,21.10
2023-07-11T02:17:19.002Z,20.71
2023-07-11T02:20:07.427Z,20.62
2023-07-11T02:22:51.116Z,20.75
2023-07-11T02:25:34.676Z,20.99
2023-07-11T02:28:18.240Z,20.77
2023-07-11T02:31:01.973Z,20.73
2023-07-11T02:33:49.440Z,20.78
2023-07-11T02:36:34.037Z,20.87
2023-07-11T02:39:17.974Z,20.61
2023-07-11T02:42:01.524Z,20.62
2023-07-11T02:44:45.100Z,20.72
2023-07-11T02:47:28.679Z,20.46
2023-07-11T02:50:12.256Z,20.73
2023-07-11T02:52:55.792Z,20.57
2023-07-11T02:55:40.716Z,20.61
2023-07-11T02:58:24.799Z,20.49
2023-07-11T03:01:08.524Z,20.61
2023-07-11T03:03:52.153Z,20.45
2023-07-11T03:06:35.795Z,20.34
2023-07-11T03:09:20.047Z,20.54
2023-07-11T03:12:03.959Z,20.57
2023-07-11T03:14:50.607Z,20.53
2023-07-11T03:17:34.301Z,20.61
2023-07-11T03:20:17.932Z,20.52
2023-07-11T03:23:01.564Z,20.47
2023-07-11T03:25:45.244Z,20.50
2023-07-11T03:28:28.807Z,20.57
2023-07-11T03:31:12.433Z,20.57
2023-07-11T03:33:56.067Z,20.58
2023-07-11T03:36:39.928Z,20.53
2023-07-11T03:39:24.992Z,20.50
2023-07-11T03:42:09.125Z,20.55
2023-07-11T03:44:52.670Z,20.46
2023-07-11T03:47:36.313Z,20.51
2023-07-11T03:50:19.916Z,20.64
2023-07-11T03:53:03.692Z,20.81
2023-07-11T03:55:47.623Z,20.87
2023-07-11T03:58:31.206Z,20.77
2023-07-11T04:01:15.002Z,20.44
2023-07-11T04:03:58.652Z,20.32
2023-07-11T04:06:43.499Z,20.47
2023-07-11T04:09:27.085Z,20.37
2023-07-11T04:12:12.006Z,20.67
2023-07-11T04:14:55.607Z,20.76
2023-07-11T04:17:39.251Z,20.78
2023-07-11T04:20:22.850Z,20.63
2023-07-11T04:23:06.457Z,20.62
2023-07-11T04:25:50.622Z,20.84
2023-07-11T04:28:34.204Z,20.90
2023-07-11T04:31:17.973Z,21.03
2023-07-11T04:34:01.730Z,21.05
2023-07-11T04:36:45.599Z,20.98
2023-07-11T04:39:29.139Z,20.79
2023-07-11T04:42:12.903Z,20.97
2023-07-11T04:44:56.453Z,21.00
2023-07-11T04:47:40.261Z,21.03
2023-07-11T04:50:23.910Z,20.93
2023-07-11T04:53:07.472Z,21.06
2023-07-11T04:56:08.823Z,21.11
2023-07-11T04:58:52.593Z,21.19
2023-07-11T05:01:36.477Z,21.17
2023-07-11T05:04:20.309Z,21.28
2023-07-11T05:07:05.357Z,21.43
2023-07-11T05:12:35.382Z,21.35
2023-07-11T05:15:19.060Z,21.27
2023-07-11T05:18:02.710Z,21.52
2023-07-11T05:20:55.397Z,21.58
2023-07-11T05:23:39.833Z,21.57
2023-07-11T05:26:23.493Z,21.69
2023-07-11T05:29:08.042Z,21.49
2023-07-11T05:31:51.680Z,21.53
2023-07-11T05:34:37.057Z,21.71
2023-07-11T05:37:21.136Z,21.80
2023-07-11T05:40:05.519Z,21.65
2023-07-11T05:42:49.198Z,21.75
2023-07-11T05:45:32.745Z,21.73
2023-07-11T05:48:16.305Z,21.93
2023-07-11T05:51:13.466Z,21.97
2023-07-11T05:53:57.107Z,21.86
2023-07-11T05:56:42.364Z,22.00
2023-07-11T05:59:25.975Z,21.63
2023-07-11T06:02:10.749Z,21.99
2023-07-11T06:04:54.329Z,21.94
2023-07-11T06:07:38.134Z,22.03
2023-07-11T06:10:21.716Z,21.98
2023-07-11T06:13:07.783Z,22.34
2023-07-11T06:15:59.165Z,22.42
2023-07-11T06:18:43.694Z,22.22
2023-07-11T06:21:27.681Z,22.49
2023-07-11T06:24:11.593Z,22.64
2023-07-11T06:26:55.145Z,22.78
2023-07-11T06:29:38.855Z,22.74
2023-07-11T06:32:22.470Z,22.68
2023-07-11T06:35:07.893Z,22.78
2023-07-11T06:37:51.450Z,22.89
2023-07-11T06:40:39.876Z,22.65
2023-07-11T06:43:26.969Z,23.06
2023-07-11T06:46:10.835Z,23.07
2023-07-11T06:48:58.693Z,23.18
2023-07-11T06:51:42.301Z,22.91
2023-07-11T06:54:27.744Z,23.03
2023-07-11T06:57:11.412Z,23.20
2023-07-11T06:59:55.335Z,23.19
2023-07-11T07:02:39.148Z,23.43
2023-07-11T07:05:22.854Z,23.44
2023-07-11T07:08:14.251Z,23.45
2023-07-11T07:10:58.868Z,23.50
2023-07-11T07:13:52.247Z,23.69
2023-07-11T07:16:46.050Z,23.56
2023-07-11T07:19:29.791Z,23.83
2023-07-11T07:22:13.374Z,23.99
2023-07-11T07:24:57.004Z,23.96
2023-07-11T07:27:40.655Z,24.13
2023-07-11T07:30:24.702Z,24.07
2023-07-11T07:33:08.456Z,24.10
2023-07-11T07:36:00.812Z,24.20
2023-07-11T07:38:44.413Z,24.21
2023-07-11T07:41:30.413Z,24.55
2023-07-11T07:44:14.832Z,24.71
2023-07-11T07:46:58.456Z,24.83
2023-07-11T07:49:54.220Z,24.93
2023-07-11T07:52:38.687Z,24.93
2023-07-11T07:55:22.294Z,25.19
2023-07-11T07:58:06.227Z,25.38
2023-07-11T08:00:49.841Z,25.45
2023-07-11T08:03:37.438Z,25.62
2023-07-11T08:06:21.152Z,25.80
2023-07-11T08:09:05.001Z,25.82
2023-07-11T08:11:48.574Z,26.19
2023-07-11T08:14:37.049Z,26.53
2023-07-11T08:17:20.891Z,26.67
2023-07-11T08:20:05.952Z,26.81
2023-07-11T08:22:51.010Z,26.76
2023-07-11T08:25:35.689Z,26.80
2023-07-11T08:28:19.400Z,26.58
2023-07-11T08:31:06.534Z,26.83
2023-07-11T08:33:50.490Z,27.01
2023-07-11T08:36:34.086Z,27.55
2023-07-11T08:39:17.668Z,27.51
2023-07-11T08:42:35.688Z,27.86
2023-07-11T08:45:32.006Z,28.10
2023-07-11T08:48:30.197Z,28.20
2023-07-11T08:51:24.656Z,28.71
2023-07-11T08:54:22.136Z,28.49
2023-07-11T08:57:10.809Z,28.76
2023-07-11T09:00:14.249Z,29.26
2023-07-11T09:03:14.363Z,29.08
2023-07-11T09:06:06.291Z,29.48
2023-07-11T09:08:55.635Z,29.77
2023-07-11T09:11:54.240Z,29.78
2023-07-11T09:15:00.893Z,29.77
2023-07-11T09:17:57.135Z,30.25
2023-07-11T09:20:52.853Z,28.94
2023-07-11T09:23:40.338Z,29.82
2023-07-11T09:26:30.968Z,29.53
2023-07-11T09:29:21.460Z,29.93
2023-07-11T09:32:07.112Z,30.05
2023-07-11T09:34:51.745Z,30.24
2023-07-11T09:37:44.351Z,29.73
2023-07-11T09:40:38.708Z,29.03
2023-07-11T09:43:22.276Z,28.67
2023-07-11T09:46:14.799Z,30.22
2023-07-11T09:49:02.973Z,30.44
2023-07-11T09:51:55.422Z,30.88
2023-07-11T09:57:34.328Z,31.13
2023-07-11T10:00:22.423Z,30.48
2023-07-11T10:03:06.767Z,31.08
2023-07-11T10:05:53.531Z,31.23
2023-07-11T10:08:44.908Z,31.60
2023-07-11T10:11:28.465Z,31.78
2023-07-11T10:14:18.726Z,30.63
2023-07-11T10:17:38.553Z,30.59
2023-07-11T10:20:23.446Z,31.06
2023-07-11T10:23:14.896Z,28.79
2023-07-11T10:26:29.269Z,30.95
2023-07-11T10:29:25.801Z,29.84
2023-07-11T10:32:32.547Z,30.67
2023-07-11T10:35:23.776Z,30.79
2023-07-11T10:38:28.136Z,31.56
2023-07-11T10:41:23.533Z,31.51
2023-07-11T10:44:20.398Z,30.31
2023-07-11T10:47:06.316Z,28.25
2023-07-11T10:49:56.153Z,30.72
2023-07-11T10:52:42.868Z,31.67
2023-07-11T10:55:38.972Z,31.80
2023-07-11T10:58:24.963Z,32.54
2023-07-11T11:01:57.867Z,32.15
2023-07-11T11:05:09.338Z,33.02
2023-07-11T11:08:05.052Z,32.40
2023-07-11T11:11:03.345Z,30.71
2023-07-11T11:14:13.024Z,33.04
2023-07-11T11:17:34.724Z,32.91
2023-07-11T11:21:12.852Z,33.34
2023-07-11T11:24:28.101Z,33.39
2023-07-11T11:27:51.844Z,32.74
2023-07-11T11:31:02.829Z,31.66
2023-07-11T11:34:08.276Z,32.95
2023-07-11T11:37:33.031Z,32.66
2023-07-11T11:40:24.538Z,33.23
2023-07-11T11:43:19.215Z,33.43
2023-07-11T11:51:49.416Z,32.84
2023-07-11T11:54:52.356Z,31.11
2023-07-11T11:57:38.115Z,30.21
2023-07-11T12:00:51.472Z,31.98
2023-07-11T12:03:34.985Z,32.03
2023-07-11T12:06:36.242Z,32.70
2023-07-11T12:09:24.355Z,33.23
2023-07-11T12:12:13.094Z,30.43
2023-07-11T12:14:56.556Z,32.16
2023-07-11T12:17:40.338Z,33.12
2023-07-11T12:20:30.334Z,32.58
2023-07-11T12:23:29.995Z,33.23
2023-07-11T12:26:26.251Z,33.46
2023-07-11T12:29:58.242Z,33.55
2023-07-11T12:32:44.713Z,34.10
2023-07-11T12:35:37.833Z,33.71
2023-07-11T12:39:10.763Z,34.24
2023-07-11T12:42:20.296Z,32.55
2023-07-11T12:45:15.451Z,33.55
2023-07-11T12:48:18.909Z,34.04
2023-07-11T12:51:26.504Z,34.37
2023-07-11T12:54:25.580Z,33.88
2023-07-11T12:57:24.623Z,33.93
2023-07-11T13:00:23.303Z,34.28
2023-07-11T13:03:28.648Z,33.85
2023-07-11T13:06:26.504Z,34.67
2023-07-11T13:09:12.176Z,33.68
2023-07-11T13:11:55.998Z,34.69
2023-07-11T13:14:44.273Z,34.18
2023-07-11T13:17:28.770Z,34.57
2023-07-11T13:20:28.265Z,33.97
2023-07-11T13:23:12.739Z,33.57
2023-07-11T13:25:56.454Z,34.59
2023-07-11T13:28:42.154Z,34.26
2023-07-11T13:31:30.477Z,34.44
2023-07-11T13:34:29.319Z,34.72
2023-07-11T13:37:24.484Z,35.11
2023-07-11T13:40:39.836Z,32.50
2023-07-11T13:43:25.464Z,33.57
2023-07-11T13:46:17.727Z,33.15
2023-07-11T13:49:21.791Z,32.25
2023-07-11T13:52:21.341Z,34.03
2023-07-11T13:55:21.343Z,33.83
2023-07-11T13:58:06.634Z,34.36
2023-07-11T14:00:55.318Z,33.33
2023-07-11T14:03:39.053Z,34.64
2023-07-11T14:06:23.217Z,34.41
2023-07-11T14:09:08.241Z,33.41
2023-07-11T14:11:51.837Z,33.59
2023-07-11T14:14:40.023Z,32.68
2023-07-11T14:17:24.859Z,33.56
2023-07-11T14:20:21.166Z,33.99
2023-07-11T14:23:13.536Z,33.60
2023-07-11T14:25:57.412Z,33.50
2023-07-11T14:28:40.972Z,33.80
2023-07-11T14:31:24.802Z,34.09
2023-07-11T14:34:24.646Z,34.32
2023-07-11T14:37:16.212Z,34.36
2023-07-11T14:39:59.793Z,34.24
2023-07-11T14:42:45.018Z,34.57
2023-07-11T14:45:29.528Z,33.92
2023-07-11T14:48:30.193Z,34.53
2023-07-11T14:51:13.809Z,34.62
2023-07-11T14:53:58.733Z,33.32
2023-07-11T14:59:34.700Z,34.03
2023-07-11T15:02:34.783Z,33.28
2023-07-11T15:17:25.988Z,34.87
2023-07-11T15:20:11.912Z,34.06
2023-07-11T15:22:58.996Z,34.52
2023-07-11T15:25:46.008Z,34.01
2023-07-11T15:28:29.808Z,34.35
2023-07-11T15:31:20.796Z,34.22
2023-07-11T15:34:06.113Z,34.36
2023-07-11T15:36:50.244Z,34.86
2023-07-11T15:39:33.893Z,35.16
2023-07-11T15:42:26.866Z,34.80
2023-07-11T15:45:28.989Z,34.81
2023-07-11T15:48:12.996Z,34.20
2023-07-11T15:50:57.136Z,33.59
2023-07-11T15:53:40.814Z,33.80
2023-07-11T15:56:24.531Z,34.32
2023-07-11T15:59:18.289Z,34.01
2023-07-11T16:02:01.983Z,33.79
2023-07-11T16:04:45.580Z,34.28
2023-07-11T16:07:29.140Z,34.20
2023-07-11T16:10:26.815Z,34.66
2023-07-11T16:13:17.378Z,34.49
2023-07-11T16:16:02.880Z,34.64
2023-07-11T16:18:47.114Z,34.11
2023-07-11T16:21:30.995Z,34.47
2023-07-11T16:24:25.835Z,34.11
2023-07-11T16:27:18.714Z,33.66
2023-07-11T16:30:02.786Z,33.21
2023-07-11T16:32:49.084Z,33.32
2023-07-11T16:35:37.745Z,33.88
2023-07-11T16:38:25.084Z,33.64
2023-07-11T16:41:08.824Z,33.92
2023-07-11T16:43:55.040Z,33.95
2023-07-11T16:46:39.245Z,33.77
2023-07-11T16:49:24.801Z,33.31
2023-07-11T16:52:14.863Z,32.98
2023-07-11T16:54:59.001Z,33.39
2023-07-11T16:57:42.628Z,32.67
2023-07-11T17:00:27.920Z,33.47
2023-07-11T17:03:12.563Z,33.50
2023-07-11T17:05:56.407Z,33.42
2023-07-11T17:08:39.943Z,33.85
2023-07-11T17:11:23.795Z,33.77
2023-07-11T17:14:08.681Z,33.41
2023-07-11T17:16:58.916Z,33.43
2023-07-11T17:19:42.524Z,33.29
2023-07-11T17:22:26.462Z,33.07
2023-07-11T17:25:18.163Z,32.46
2023-07-11T17:28:02.023Z,32.55
2023-07-11T17:30:48.574Z,32.69
2023-07-11T17:33:33.832Z,32.55
2023-07-11T17:36:20.031Z,32.85
2023-07-11T17:42:41.238Z,32.96
2023-07-11T17:45:46.469Z,32.93
2023-07-11T17:48:28.796Z,32.48
2023-07-11T17:51:13.970Z,32.60
2023-07-11T17:53:57.686Z,32.61
2023-07-11T17:56:58.196Z,32.32
2023-07-11T17:59:44.838Z,32.05
2023-07-11T18:02:41.306Z,32.29
2023-07-11T18:05:28.713Z,32.15
2023-07-11T18:08:19.154Z,31.91
